sensor_id;sensor_type;location;lat;lon;timestamp;temperature;humidity
18648;DHT22;9453;50.294;18.644;2023-07-31T04:02:24;17.10;99.90
18648;DHT22;9453;50.294;18.644;2023-07-31T04:04:50;17.10;99.90
18648;DHT22;9453;50.294;18.644;2023-07-31T04:07:17;17.10;99.90
18648;DHT22;9453;50.294;18.644;2023-07-31T04:09:44;17.10;99.90
18648;DHT22;9453;50.294;18.644;2023-07-31T04:12:11;17.20;99.90
18648;DHT22;9453;50.294;18.644;2023-07-31T04:14:38;17.20;99.90
18648;DHT22;9453;50.294;18.644;2023-07-31T04:17:05;17.30;99.90
18648;DHT22;9453;50.294;18.644;2023-07-31T04:19:34;17.30;99.90
18648;DHT22;9453;50.294;18.644;2023-07-31T04:22:01;17.40;99.90
18648;DHT22;9453;50.294;18.644;2023-07-31T04:24:27;17.40;99.90
18648;DHT22;9453;50.294;18.644;2023-07-31T04:26:55;17.50;99.90
18648;DHT22;9453;50.294;18.644;2023-07-31T04:29:22;17.60;99.90
18648;DHT22;9453;50.294;18.644;2023-07-31T04:31:49;17.60;99.90
18648;DHT22;9453;50.294;18.644;2023-07-31T04:34:16;17.60;99.90
18648;DHT22;9453;50.294;18.644;2023-07-31T04:36:44;17.70;99.90
18648;DHT22;9453;50.294;18.644;2023-07-31T04:39:11;17.70;99.90
18648;DHT22;9453;50.294;18.644;2023-07-31T04:41:38;17.70;99.90
18648;DHT22;9453;50.294;18.644;2023-07-31T04:44:05;17.70;99.90
18648;DHT22;9453;50.294;18.644;2023-07-31T04:46:32;17.70;99.90
18648;DHT22;9453;50.294;18.644;2023-07-31T04:48:59;17.80;99.90
18648;DHT22;9453;50.294;18.644;2023-07-31T04:51:26;17.80;99.90
18648;DHT22;9453;50.294;18.644;2023-07-31T04:53:54;17.90;99.90
18648;DHT22;9453;50.294;18.644;2023-07-31T04:56:21;18.00;99.90
18648;DHT22;9453;50.294;18.644;2023-07-31T04:58:48;18.00;99.90
18648;DHT22;9453;50.294;18.644;2023-07-31T05:01:15;18.00;99.90
18648;DHT22;9453;50.294;18.644;2023-07-31T05:03:41;18.10;99.90
18648;DHT22;9453;50.294;18.644;2023-07-31T05:06:08;18.20;99.90
18648;DHT22;9453;50.294;18.644;2023-07-31T05:08:35;18.30;99.90
18648;DHT22;9453;50.294;18.644;2023-07-31T05:11:04;18.30;99.90
18648;DHT22;9453;50.294;18.644;2023-07-31T05:13:31;18.40;99.90
18648;DHT22;9453;50.294;18.644;2023-07-31T05:15:58;18.50;99.90
18648;DHT22;9453;50.294;18.644;2023-07-31T05:18:25;18.60;99.90
18648;DHT22;9453;50.294;18.644;2023-07-31T05:20:52;18.70;99.90
18648;DHT22;9453;50.294;18.644;2023-07-31T05:23:19;18.80;99.90
18648;DHT22;9453;50.294;18.644;2023-07-31T05:25:46;18.90;99.90
18648;DHT22;9453;50.294;18.644;2023-07-31T05:28:14;18.90;99.90
18648;DHT22;9453;50.294;18.644;2023-07-31T05:30:41;19.00;99.90
18648;DHT22;9453;50.294;18.644;2023-07-31T05:33:08;19.00;99.90
18648;DHT22;9453;50.294;18.644;2023-07-31T05:35:34;19.00;99.90
18648;DHT22;9453;50.294;18.644;2023-07-31T05:38:01;19.00;99.90
18648;DHT22;9453;50.294;18.644;2023-07-31T05:40:28;19.00;99.90
18648;DHT22;9453;50.294;18.644;2023-07-31T05:42:58;19.00;99.90
18648;DHT22;9453;50.294;18.644;2023-07-31T05:45:27;19.00;99.90
18648;DHT22;9453;50.294;18.644;2023-07-31T05:47:54;18.80;99.90
18648;DHT22;9453;50.294;18.644;2023-07-31T05:50:20;18.90;99.90
18648;DHT22;9453;50.294;18.644;2023-07-31T05:52:47;19.00;99.90
18648;DHT22;9453;50.294;18.644;2023-07-31T05:55:14;19.20;99.90
18648;DHT22;9453;50.294;18.644;2023-07-31T05:57:42;19.40;99.90
18648;DHT22;9453;50.294;18.644;2023-07-31T06:00:12;19.30;99.90
18648;DHT22;9453;50.294;18.644;2023-07-31T06:02:40;19.30;99.90
18648;DHT22;9453;50.294;18.644;2023-07-31T06:05:08;19.50;99.90
18648;DHT22;9453;50.294;18.644;2023-07-31T06:07:35;19.60;99.90
18648;DHT22;9453;50.294;18.644;2023-07-31T06:10:02;19.60;99.90
18648;DHT22;9453;50.294;18.644;2023-07-31T06:12:31;19.70;99.90
18648;DHT22;9453;50.294;18.644;2023-07-31T06:14:58;19.70;99.90
18648;DHT22;9453;50.294;18.644;2023-07-31T06:17:25;19.90;99.90
18648;DHT22;9453;50.294;18.644;2023-07-31T06:19:53;19.90;99.90
18648;DHT22;9453;50.294;18.644;2023-07-31T06:22:20;19.90;99.90
18648;DHT22;9453;50.294;18.644;2023-07-31T06:24:47;19.90;99.90
18648;DHT22;9453;50.294;18.644;2023-07-31T06:27:14;19.90;99.90
18648;DHT22;9453;50.294;18.644;2023-07-31T06:29:42;19.80;99.90
18648;DHT22;9453;50.294;18.644;2023-07-31T06:32:09;19.60;99.90
18648;DHT22;9453;50.294;18.644;2023-07-31T06:34:36;19.70;99.90
18648;DHT22;9453;50.294;18.644;2023-07-31T06:37:05;19.80;99.90
18648;DHT22;9453;50.294;18.644;2023-07-31T06:39:32;19.90;99.90
18648;DHT22;9453;50.294;18.644;2023-07-31T06:41:59;20.00;99.90
18648;DHT22;9453;50.294;18.644;2023-07-31T06:44:26;20.10;99.90
18648;DHT22;9453;50.294;18.644;2023-07-31T06:46:53;20.20;99.90
18648;DHT22;9453;50.294;18.644;2023-07-31T06:49:20;20.20;99.90
18648;DHT22;9453;50.294;18.644;2023-07-31T06:51:47;20.30;99.90
18648;DHT22;9453;50.294;18.644;2023-07-31T06:54:15;20.20;99.90
18648;DHT22;9453;50.294;18.644;2023-07-31T06:56:42;20.20;99.90
18648;DHT22;9453;50.294;18.644;2023-07-31T06:59:09;20.20;99.90
18648;DHT22;9453;50.294;18.644;2023-07-31T07:01:35;20.20;99.90
18648;DHT22;9453;50.294;18.644;2023-07-31T07:04:02;20.30;99.90
18648;DHT22;9453;50.294;18.644;2023-07-31T07:06:29;20.30;99.90
18648;DHT22;9453;50.294;18.644;2023-07-31T07:08:56;20.30;99.90
18648;DHT22;9453;50.294;18.644;2023-07-31T07:11:25;20.30;99.90
18648;DHT22;9453;50.294;18.644;2023-07-31T07:13:52;20.20;99.90
18648;DHT22;9453;50.294;18.644;2023-07-31T07:16:18;20.30;99.90
18648;DHT22;9453;50.294;18.644;2023-07-31T07:18:46;20.30;99.90
18648;DHT22;9453;50.294;18.644;2023-07-31T07:21:13;20.30;99.90
18648;DHT22;9453;50.294;18.644;2023-07-31T07:23:41;20.40;99.90
18648;DHT22;9453;50.294;18.644;2023-07-31T07:26:08;20.50;99.90
18648;DHT22;9453;50.294;18.644;2023-07-31T07:28:36;20.60;99.90
18648;DHT22;9453;50.294;18.644;2023-07-31T07:31:03;20.60;99.90
18648;DHT22;9453;50.294;18.644;2023-07-31T07:33:30;20.70;99.90
18648;DHT22;9453;50.294;18.644;2023-07-31T07:36:00;20.70;99.90
18648;DHT22;9453;50.294;18.644;2023-07-31T07:38:27;20.70;99.30
18648;DHT22;9453;50.294;18.644;2023-07-31T07:40:54;20.80;99.90
18648;DHT22;9453;50.294;18.644;2023-07-31T07:43:21;20.90;99.90
18648;DHT22;9453;50.294;18.644;2023-07-31T07:45:49;21.00;99.90
18648;DHT22;9453;50.294;18.644;2023-07-31T07:48:16;21.10;99.90
18648;DHT22;9453;50.294;18.644;2023-07-31T07:50:43;21.10;99.90
18648;DHT22;9453;50.294;18.644;2023-07-31T07:53:10;21.20;99.60
18648;DHT22;9453;50.294;18.644;2023-07-31T07:55:37;21.30;99.90
18648;DHT22;9453;50.294;18.644;2023-07-31T07:58:04;21.40;99.80
18648;DHT22;9453;50.294;18.644;2023-07-31T08:00:31;21.40;99.70
18648;DHT22;9453;50.294;18.644;2023-07-31T08:02:59;21.40;97.10
18648;DHT22;9453;50.294;18.644;2023-07-31T08:05:26;21.50;97.00
18648;DHT22;9453;50.294;18.644;2023-07-31T08:07:53;21.60;97.70
18648;DHT22;9453;50.294;18.644;2023-07-31T08:10:20;21.70;96.90
18648;DHT22;9453;50.294;18.644;2023-07-31T08:12:47;21.70;95.20
18648;DHT22;9453;50.294;18.644;2023-07-31T08:15:14;21.80;96.60
18648;DHT22;9453;50.294;18.644;2023-07-31T08:17:40;21.90;95.30
18648;DHT22;9453;50.294;18.644;2023-07-31T08:20:10;22.00;96.60
18648;DHT22;9453;50.294;18.644;2023-07-31T08:22:37;22.20;96.70
18648;DHT22;9453;50.294;18.644;2023-07-31T08:25:05;22.00;95.20
18648;DHT22;9453;50.294;18.644;2023-07-31T08:27:32;22.00;96.40
18648;DHT22;9453;50.294;18.644;2023-07-31T08:29:59;22.20;96.40
18648;DHT22;9453;50.294;18.644;2023-07-31T08:32:26;22.30;94.90
18648;DHT22;9453;50.294;18.644;2023-07-31T08:34:53;22.40;93.60
18648;DHT22;9453;50.294;18.644;2023-07-31T08:37:21;22.40;93.40
18648;DHT22;9453;50.294;18.644;2023-07-31T08:39:48;22.60;94.20
18648;DHT22;9453;50.294;18.644;2023-07-31T08:42:15;22.70;92.90
18648;DHT22;9453;50.294;18.644;2023-07-31T08:44:43;22.90;93.60
18648;DHT22;9453;50.294;18.644;2023-07-31T08:47:11;22.80;90.90
18648;DHT22;9453;50.294;18.644;2023-07-31T08:49:38;22.70;91.70
18648;DHT22;9453;50.294;18.644;2023-07-31T08:52:07;22.60;90.90
18648;DHT22;9453;50.294;18.644;2023-07-31T08:54:35;22.60;90.80
18648;DHT22;9453;50.294;18.644;2023-07-31T08:57:02;22.70;92.70
18648;DHT22;9453;50.294;18.644;2023-07-31T08:59:31;22.90;90.40
18648;DHT22;9453;50.294;18.644;2023-07-31T09:02:04;23.10;90.90
18648;DHT22;9453;50.294;18.644;2023-07-31T09:04:32;23.30;91.10
18648;DHT22;9453;50.294;18.644;2023-07-31T09:07:01;23.50;88.70
18648;DHT22;9453;50.294;18.644;2023-07-31T09:09:30;23.80;89.00
18648;DHT22;9453;50.294;18.644;2023-07-31T09:11:58;23.90;88.20
18648;DHT22;9453;50.294;18.644;2023-07-31T09:14:26;24.10;85.90
18648;DHT22;9453;50.294;18.644;2023-07-31T09:16:54;23.90;82.10
18648;DHT22;9453;50.294;18.644;2023-07-31T09:19:29;23.70;83.70
18648;DHT22;9453;50.294;18.644;2023-07-31T09:21:56;23.60;86.20
18648;DHT22;9453;50.294;18.644;2023-07-31T09:24:26;23.80;84.60
18648;DHT22;9453;50.294;18.644;2023-07-31T09:26:54;23.80;84.00
18648;DHT22;9453;50.294;18.644;2023-07-31T09:29:23;23.70;82.90
18648;DHT22;9453;50.294;18.644;2023-07-31T09:31:50;23.80;82.00
18648;DHT22;9453;50.294;18.644;2023-07-31T09:34:17;23.80;81.70
18648;DHT22;9453;50.294;18.644;2023-07-31T09:36:46;23.90;84.00
18648;DHT22;9453;50.294;18.644;2023-07-31T09:39:15;24.00;77.50
18648;DHT22;9453;50.294;18.644;2023-07-31T09:41:43;24.20;79.00
18648;DHT22;9453;50.294;18.644;2023-07-31T09:44:11;24.40;79.10
18648;DHT22;9453;50.294;18.644;2023-07-31T09:46:39;24.20;77.00
18648;DHT22;9453;50.294;18.644;2023-07-31T09:49:07;24.00;74.90
18648;DHT22;9453;50.294;18.644;2023-07-31T09:51:36;24.00;78.90
18648;DHT22;9453;50.294;18.644;2023-07-31T09:54:10;23.80;80.10
18648;DHT22;9453;50.294;18.644;2023-07-31T09:56:42;23.90;78.80
18648;DHT22;9453;50.294;18.644;2023-07-31T09:59:11;24.00;77.10
18648;DHT22;9453;50.294;18.644;2023-07-31T10:01:41;24.10;76.10
18648;DHT22;9453;50.294;18.644;2023-07-31T10:04:09;24.20;76.50
18648;DHT22;9453;50.294;18.644;2023-07-31T10:06:37;24.20;76.90
18648;DHT22;9453;50.294;18.644;2023-07-31T10:09:06;24.30;75.20
18648;DHT22;9453;50.294;18.644;2023-07-31T10:11:36;24.10;76.10
18648;DHT22;9453;50.294;18.644;2023-07-31T10:14:05;24.00;73.70
18648;DHT22;9453;50.294;18.644;2023-07-31T10:16:35;24.00;74.80
18648;DHT22;9453;50.294;18.644;2023-07-31T10:19:04;23.80;74.00
18648;DHT22;9453;50.294;18.644;2023-07-31T10:21:31;23.70;72.60
18648;DHT22;9453;50.294;18.644;2023-07-31T10:24:02;23.70;70.40
18648;DHT22;9453;50.294;18.644;2023-07-31T10:26:31;23.70;72.30
18648;DHT22;9453;50.294;18.644;2023-07-31T10:28:59;23.60;70.00
18648;DHT22;9453;50.294;18.644;2023-07-31T10:31:27;23.60;71.30
18648;DHT22;9453;50.294;18.644;2023-07-31T10:33:55;23.50;70.60
18648;DHT22;9453;50.294;18.644;2023-07-31T10:36:24;23.50;72.40
18648;DHT22;9453;50.294;18.644;2023-07-31T10:38:51;23.40;72.40
18648;DHT22;9453;50.294;18.644;2023-07-31T10:41:18;23.60;76.30
18648;DHT22;9453;50.294;18.644;2023-07-31T10:43:46;23.70;72.00
18648;DHT22;9453;50.294;18.644;2023-07-31T10:46:14;23.90;74.60
18648;DHT22;9453;50.294;18.644;2023-07-31T10:48:41;24.20;72.30
18648;DHT22;9453;50.294;18.644;2023-07-31T10:51:09;24.10;70.90
18648;DHT22;9453;50.294;18.644;2023-07-31T10:53:39;24.10;73.00
18648;DHT22;9453;50.294;18.644;2023-07-31T10:56:08;24.10;72.70
18648;DHT22;9453;50.294;18.644;2023-07-31T10:58:36;24.10;73.10
18648;DHT22;9453;50.294;18.644;2023-07-31T11:01:04;24.00;73.40
18648;DHT22;9453;50.294;18.644;2023-07-31T11:03:42;24.00;73.20
18648;DHT22;9453;50.294;18.644;2023-07-31T11:06:09;24.00;69.00
18648;DHT22;9453;50.294;18.644;2023-07-31T11:08:43;24.10;70.20
18648;DHT22;9453;50.294;18.644;2023-07-31T11:11:11;24.10;70.10
18648;DHT22;9453;50.294;18.644;2023-07-31T11:13:44;24.20;73.30
18648;DHT22;9453;50.294;18.644;2023-07-31T11:16:12;24.30;72.80
18648;DHT22;9453;50.294;18.644;2023-07-31T11:18:40;24.30;73.10
18648;DHT22;9453;50.294;18.644;2023-07-31T11:21:08;24.40;72.50
18648;DHT22;9453;50.294;18.644;2023-07-31T11:23:38;24.50;71.90
18648;DHT22;9453;50.294;18.644;2023-07-31T11:26:05;24.70;71.10
18648;DHT22;9453;50.294;18.644;2023-07-31T11:28:34;24.70;70.60
18648;DHT22;9453;50.294;18.644;2023-07-31T11:31:02;24.60;70.80
18648;DHT22;9453;50.294;18.644;2023-07-31T11:33:29;24.40;71.80
18648;DHT22;9453;50.294;18.644;2023-07-31T11:35:56;24.30;71.80
18648;DHT22;9453;50.294;18.644;2023-07-31T11:38:24;24.30;70.80
18648;DHT22;9453;50.294;18.644;2023-07-31T11:40:53;24.20;71.00
18648;DHT22;9453;50.294;18.644;2023-07-31T11:43:21;24.20;72.70
18648;DHT22;9453;50.294;18.644;2023-07-31T11:45:48;24.30;71.80
18648;DHT22;9453;50.294;18.644;2023-07-31T11:48:20;24.40;71.70
18648;DHT22;9453;50.294;18.644;2023-07-31T11:50:48;24.40;71.40
18648;DHT22;9453;50.294;18.644;2023-07-31T11:53:18;24.50;71.00
18648;DHT22;9453;50.294;18.644;2023-07-31T11:55:46;24.60;70.50
18648;DHT22;9453;50.294;18.644;2023-07-31T11:58:15;24.80;70.30
18648;DHT22;9453;50.294;18.644;2023-07-31T12:00:43;24.90;70.00
18648;DHT22;9453;50.294;18.644;2023-07-31T12:05:37;25.10;71.90
18648;DHT22;9453;50.294;18.644;2023-07-31T12:08:10;25.30;72.10
18648;DHT22;9453;50.294;18.644;2023-07-31T12:10:37;25.40;70.50
18648;DHT22;9453;50.294;18.644;2023-07-31T12:13:08;25.60;70.00
18648;DHT22;9453;50.294;18.644;2023-07-31T12:15:54;25.80;70.00
18648;DHT22;9453;50.294;18.644;2023-07-31T12:18:22;26.00;67.80
18648;DHT22;9453;50.294;18.644;2023-07-31T12:20:54;26.20;66.60
18648;DHT22;9453;50.294;18.644;2023-07-31T12:23:23;26.20;64.60
18648;DHT22;9453;50.294;18.644;2023-07-31T12:26:00;26.30;65.20
18648;DHT22;9453;50.294;18.644;2023-07-31T12:28:27;26.40;64.20
18648;DHT22;9453;50.294;18.644;2023-07-31T12:30:59;26.50;63.90
18648;DHT22;9453;50.294;18.644;2023-07-31T12:33:31;26.20;66.10
18648;DHT22;9453;50.294;18.644;2023-07-31T12:36:01;26.20;66.00
18648;DHT22;9453;50.294;18.644;2023-07-31T12:38:28;26.20;65.10
18648;DHT22;9453;50.294;18.644;2023-07-31T12:40:55;26.20;64.80
18648;DHT22;9453;50.294;18.644;2023-07-31T12:43:22;26.30;62.70
18648;DHT22;9453;50.294;18.644;2023-07-31T12:45:49;26.50;62.90
18648;DHT22;9453;50.294;18.644;2023-07-31T12:48:17;26.70;63.00
18648;DHT22;9453;50.294;18.644;2023-07-31T12:50:44;26.70;64.60
18648;DHT22;9453;50.294;18.644;2023-07-31T12:53:11;26.80;62.60
18648;DHT22;9453;50.294;18.644;2023-07-31T12:55:38;26.30;65.30
18648;DHT22;9453;50.294;18.644;2023-07-31T12:58:05;26.10;65.00
18648;DHT22;9453;50.294;18.644;2023-07-31T13:00:32;26.10;64.90
18648;DHT22;9453;50.294;18.644;2023-07-31T13:02:59;26.10;64.50
18648;DHT22;9453;50.294;18.644;2023-07-31T13:05:28;25.90;64.70
18648;DHT22;9453;50.294;18.644;2023-07-31T13:07:55;25.80;64.50
18648;DHT22;9453;50.294;18.644;2023-07-31T13:10:23;25.80;63.20
18648;DHT22;9453;50.294;18.644;2023-07-31T13:12:51;25.80;63.50
18648;DHT22;9453;50.294;18.644;2023-07-31T13:15:18;25.90;62.70
18648;DHT22;9453;50.294;18.644;2023-07-31T13:17:45;26.20;63.20
18648;DHT22;9453;50.294;18.644;2023-07-31T13:20:12;26.30;64.80
18648;DHT22;9453;50.294;18.644;2023-07-31T13:22:41;26.50;62.20
18648;DHT22;9453;50.294;18.644;2023-07-31T13:25:08;26.50;62.90
18648;DHT22;9453;50.294;18.644;2023-07-31T13:27:35;26.60;60.20
18648;DHT22;9453;50.294;18.644;2023-07-31T13:30:03;26.60;60.70
18648;DHT22;9453;50.294;18.644;2023-07-31T13:32:30;26.60;60.50
18648;DHT22;9453;50.294;18.644;2023-07-31T13:34:57;26.50;59.10
18648;DHT22;9453;50.294;18.644;2023-07-31T13:37:24;26.40;58.90
18648;DHT22;9453;50.294;18.644;2023-07-31T13:39:52;26.20;59.40
18648;DHT22;9453;50.294;18.644;2023-07-31T13:42:19;26.10;59.60
18648;DHT22;9453;50.294;18.644;2023-07-31T13:44:47;26.10;60.90
18648;DHT22;9453;50.294;18.644;2023-07-31T13:47:14;26.10;61.10
18648;DHT22;9453;50.294;18.644;2023-07-31T13:49:41;26.00;62.40
18648;DHT22;9453;50.294;18.644;2023-07-31T13:52:09;25.90;63.70
18648;DHT22;9453;50.294;18.644;2023-07-31T13:54:35;26.00;62.50
18648;DHT22;9453;50.294;18.644;2023-07-31T13:57:05;26.10;60.40
18648;DHT22;9453;50.294;18.644;2023-07-31T13:59:32;26.10;59.10
18648;DHT22;9453;50.294;18.644;2023-07-31T14:01:58;26.10;60.40
18648;DHT22;9453;50.294;18.644;2023-07-31T14:04:25;26.20;59.60
18648;DHT22;9453;50.294;18.644;2023-07-31T14:06:52;26.60;58.50
18648;DHT22;9453;50.294;18.644;2023-07-31T14:09:19;26.70;59.10
18648;DHT22;9453;50.294;18.644;2023-07-31T14:11:46;26.70;61.00
18648;DHT22;9453;50.294;18.644;2023-07-31T14:14:15;26.50;60.60
18648;DHT22;9453;50.294;18.644;2023-07-31T14:16:43;26.20;60.40
18648;DHT22;9453;50.294;18.644;2023-07-31T14:19:10;26.10;59.70
18648;DHT22;9453;50.294;18.644;2023-07-31T14:21:37;25.90;60.90
18648;DHT22;9453;50.294;18.644;2023-07-31T14:24:04;25.80;61.40
18648;DHT22;9453;50.294;18.644;2023-07-31T14:26:31;25.80;63.00
18648;DHT22;9453;50.294;18.644;2023-07-31T14:28:58;25.80;63.30
18648;DHT22;9453;50.294;18.644;2023-07-31T14:31:27;25.80;62.60
18648;DHT22;9453;50.294;18.644;2023-07-31T14:33:53;25.80;62.20
18648;DHT22;9453;50.294;18.644;2023-07-31T14:36:20;25.80;62.40
18648;DHT22;9453;50.294;18.644;2023-07-31T14:38:47;25.70;63.10
18648;DHT22;9453;50.294;18.644;2023-07-31T14:41:14;25.60;61.60
18648;DHT22;9453;50.294;18.644;2023-07-31T14:43:41;25.50;61.60
18648;DHT22;9453;50.294;18.644;2023-07-31T14:46:08;25.50;61.90
18648;DHT22;9453;50.294;18.644;2023-07-31T14:48:36;25.60;61.50
18648;DHT22;9453;50.294;18.644;2023-07-31T14:51:03;25.50;62.40
18648;DHT22;9453;50.294;18.644;2023-07-31T14:53:30;25.50;62.60
18648;DHT22;9453;50.294;18.644;2023-07-31T14:55:57;25.60;63.30
18648;DHT22;9453;50.294;18.644;2023-07-31T14:58:24;25.80;64.30
18648;DHT22;9453;50.294;18.644;2023-07-31T15:00:51;26.30;64.90
18648;DHT22;9453;50.294;18.644;2023-07-31T15:03:18;26.70;62.20
18648;DHT22;9453;50.294;18.644;2023-07-31T15:05:46;26.80;60.00
18648;DHT22;9453;50.294;18.644;2023-07-31T15:08:13;26.90;61.50
18648;DHT22;9453;50.294;18.644;2023-07-31T15:10:40;27.00;60.10
18648;DHT22;9453;50.294;18.644;2023-07-31T15:13:06;26.80;60.00
18648;DHT22;9453;50.294;18.644;2023-07-31T15:15:33;26.60;61.80
18648;DHT22;9453;50.294;18.644;2023-07-31T15:18:00;26.60;63.70
18648;DHT22;9453;50.294;18.644;2023-07-31T15:20:28;26.80;60.50
18648;DHT22;9453;50.294;18.644;2023-07-31T15:22:57;27.00;60.00
18648;DHT22;9453;50.294;18.644;2023-07-31T15:25:24;27.10;61.20
18648;DHT22;9453;50.294;18.644;2023-07-31T15:27:50;27.10;59.90
18648;DHT22;9453;50.294;18.644;2023-07-31T15:30:17;27.00;59.70
18648;DHT22;9453;50.294;18.644;2023-07-31T15:32:44;26.70;59.00
18648;DHT22;9453;50.294;18.644;2023-07-31T15:35:14;26.50;59.60
18648;DHT22;9453;50.294;18.644;2023-07-31T15:37:41;26.40;60.00
18648;DHT22;9453;50.294;18.644;2023-07-31T15:40:10;26.00;59.90
18648;DHT22;9453;50.294;18.644;2023-07-31T15:42:37;26.20;61.80
18648;DHT22;9453;50.294;18.644;2023-07-31T15:45:06;26.50;62.90
18648;DHT22;9453;50.294;18.644;2023-07-31T15:47:34;26.90;61.70
18648;DHT22;9453;50.294;18.644;2023-07-31T15:50:01;27.00;58.70
18648;DHT22;9453;50.294;18.644;2023-07-31T15:52:28;27.20;59.00
18648;DHT22;9453;50.294;18.644;2023-07-31T15:54:54;27.40;59.70
18648;DHT22;9453;50.294;18.644;2023-07-31T15:57:23;27.60;57.70
18648;DHT22;9453;50.294;18.644;2023-07-31T15:59:50;27.80;58.10
18648;DHT22;9453;50.294;18.644;2023-07-31T16:02:17;28.00;58.00
18648;DHT22;9453;50.294;18.644;2023-07-31T16:04:43;28.10;57.20
18648;DHT22;9453;50.294;18.644;2023-07-31T16:07:10;28.30;57.60
18648;DHT22;9453;50.294;18.644;2023-07-31T16:09:38;28.40;56.40
18648;DHT22;9453;50.294;18.644;2023-07-31T16:12:05;28.30;57.20
18648;DHT22;9453;50.294;18.644;2023-07-31T16:14:34;28.10;57.30
18648;DHT22;9453;50.294;18.644;2023-07-31T16:17:01;27.80;56.80
18648;DHT22;9453;50.294;18.644;2023-07-31T16:19:28;27.50;57.30
18648;DHT22;9453;50.294;18.644;2023-07-31T16:21:54;27.00;57.90
18648;DHT22;9453;50.294;18.644;2023-07-31T16:24:21;26.50;58.30
18648;DHT22;9453;50.294;18.644;2023-07-31T16:26:48;26.10;59.40
18648;DHT22;9453;50.294;18.644;2023-07-31T16:29:15;25.80;60.50
18648;DHT22;9453;50.294;18.644;2023-07-31T16:31:44;25.50;61.20
18648;DHT22;9453;50.294;18.644;2023-07-31T16:34:10;25.30;62.30
18648;DHT22;9453;50.294;18.644;2023-07-31T16:36:37;25.10;62.50
18648;DHT22;9453;50.294;18.644;2023-07-31T16:39:04;25.00;64.00
18648;DHT22;9453;50.294;18.644;2023-07-31T16:41:31;24.80;64.00
18648;DHT22;9453;50.294;18.644;2023-07-31T16:43:58;24.70;65.40
18648;DHT22;9453;50.294;18.644;2023-07-31T16:46:25;24.60;66.40
18648;DHT22;9453;50.294;18.644;2023-07-31T16:48:53;24.60;66.10
18648;DHT22;9453;50.294;18.644;2023-07-31T16:51:20;24.50;66.70
18648;DHT22;9453;50.294;18.644;2023-07-31T16:53:47;24.40;66.30
18648;DHT22;9453;50.294;18.644;2023-07-31T16:56:14;24.30;68.00
18648;DHT22;9453;50.294;18.644;2023-07-31T16:58:42;24.20;68.70
18648;DHT22;9453;50.294;18.644;2023-07-31T17:01:09;24.20;69.70
18648;DHT22;9453;50.294;18.644;2023-07-31T17:03:36;24.00;67.50
18648;DHT22;9453;50.294;18.644;2023-07-31T17:06:04;24.00;67.90
18648;DHT22;9453;50.294;18.644;2023-07-31T17:08:31;23.90;70.10
18648;DHT22;9453;50.294;18.644;2023-07-31T17:10:58;23.80;70.10
18648;DHT22;9453;50.294;18.644;2023-07-31T17:13:25;23.80;70.20
18648;DHT22;9453;50.294;18.644;2023-07-31T17:15:52;23.70;70.30
18648;DHT22;9453;50.294;18.644;2023-07-31T17:18:19;23.60;70.70
18648;DHT22;9453;50.294;18.644;2023-07-31T17:20:46;23.60;71.10
18648;DHT22;9453;50.294;18.644;2023-07-31T17:23:14;23.50;72.00
18648;DHT22;9453;50.294;18.644;2023-07-31T17:25:41;23.40;71.80
18648;DHT22;9453;50.294;18.644;2023-07-31T17:28:08;23.40;71.90
18648;DHT22;9453;50.294;18.644;2023-07-31T17:30:35;23.40;72.50
18648;DHT22;9453;50.294;18.644;2023-07-31T17:33:02;23.40;72.50
18648;DHT22;9453;50.294;18.644;2023-07-31T17:35:29;23.30;72.90
18648;DHT22;9453;50.294;18.644;2023-07-31T17:37:57;23.30;72.70
18648;DHT22;9453;50.294;18.644;2023-07-31T17:40:25;23.30;73.00
18648;DHT22;9453;50.294;18.644;2023-07-31T17:42:53;23.30;73.30
18648;DHT22;9453;50.294;18.644;2023-07-31T17:45:20;23.30;73.20
18648;DHT22;9453;50.294;18.644;2023-07-31T17:47:47;23.30;73.10
18648;DHT22;9453;50.294;18.644;2023-07-31T17:50:14;23.30;74.40
18648;DHT22;9453;50.294;18.644;2023-07-31T17:52:40;23.30;74.80
18648;DHT22;9453;50.294;18.644;2023-07-31T17:55:08;23.20;75.10
18648;DHT22;9453;50.294;18.644;2023-07-31T17:57:36;23.20;76.20
18648;DHT22;9453;50.294;18.644;2023-07-31T18:00:04;23.10;76.20
18648;DHT22;9453;50.294;18.644;2023-07-31T18:02:31;23.00;76.70
18648;DHT22;9453;50.294;18.644;2023-07-31T18:05:00;22.90;75.10
18648;DHT22;9453;50.294;18.644;2023-07-31T18:07:27;22.80;77.00
18648;DHT22;9453;50.294;18.644;2023-07-31T18:09:54;22.70;77.60
18648;DHT22;9453;50.294;18.644;2023-07-31T18:12:21;22.60;78.60
18648;DHT22;9453;50.294;18.644;2023-07-31T18:14:49;22.50;77.30
18648;DHT22;9453;50.294;18.644;2023-07-31T18:17:16;22.40;77.10
18648;DHT22;9453;50.294;18.644;2023-07-31T18:19:43;22.30;77.40
18648;DHT22;9453;50.294;18.644;2023-07-31T18:22:10;22.10;77.90
18648;DHT22;9453;50.294;18.644;2023-07-31T18:24:37;22.00;78.50
18648;DHT22;9453;50.294;18.644;2023-07-31T18:27:04;21.90;78.80
18648;DHT22;9453;50.294;18.644;2023-07-31T18:29:31;21.70;79.50
18648;DHT22;9453;50.294;18.644;2023-07-31T18:32:02;21.60;80.50
18648;DHT22;9453;50.294;18.644;2023-07-31T18:34:29;21.50;80.70
18648;DHT22;9453;50.294;18.644;2023-07-31T18:36:56;21.40;81.20
18648;DHT22;9453;50.294;18.644;2023-07-31T18:39:23;21.40;81.70
18648;DHT22;9453;50.294;18.644;2023-07-31T18:41:50;21.20;81.80
18648;DHT22;9453;50.294;18.644;2023-07-31T18:44:17;21.10;82.40
18648;DHT22;9453;50.294;18.644;2023-07-31T18:46:44;21.10;82.80
18648;DHT22;9453;50.294;18.644;2023-07-31T18:49:12;21.00;83.10
18648;DHT22;9453;50.294;18.644;2023-07-31T18:51:39;20.80;83.30
18648;DHT22;9453;50.294;18.644;2023-07-31T18:54:06;20.70;83.80
18648;DHT22;9453;50.294;18.644;2023-07-31T18:56:33;20.60;84.20
18648;DHT22;9453;50.294;18.644;2023-07-31T18:59:02;20.60;85.00
18648;DHT22;9453;50.294;18.644;2023-07-31T19:01:29;20.50;85.40
18648;DHT22;9453;50.294;18.644;2023-07-31T19:03:55;20.40;85.60
18648;DHT22;9453;50.294;18.644;2023-07-31T19:06:25;20.40;86.60
18648;DHT22;9453;50.294;18.644;2023-07-31T19:08:52;20.30;87.30
18648;DHT22;9453;50.294;18.644;2023-07-31T19:11:19;20.30;87.80
18648;DHT22;9453;50.294;18.644;2023-07-31T19:13:46;20.20;89.00
18648;DHT22;9453;50.294;18.644;2023-07-31T19:16:13;20.20;89.50
18648;DHT22;9453;50.294;18.644;2023-07-31T19:18:39;20.10;90.00
18648;DHT22;9453;50.294;18.644;2023-07-31T19:21:06;20.00;90.10
18648;DHT22;9453;50.294;18.644;2023-07-31T19:23:35;20.00;90.60
18648;DHT22;9453;50.294;18.644;2023-07-31T19:26:02;19.90;91.20
18648;DHT22;9453;50.294;18.644;2023-07-31T19:28:29;19.90;91.90
18648;DHT22;9453;50.294;18.644;2023-07-31T19:30:57;19.90;92.10
18648;DHT22;9453;50.294;18.644;2023-07-31T19:33:24;19.80;91.90
18648;DHT22;9453;50.294;18.644;2023-07-31T19:35:55;19.80;92.20